Letterkenny Army Depot, Pennsylvania
Current Conditions -  °F | °C
As of 6:53 PM on Friday 21 Nov 2014 (Local Time) from KHGR Reporting Station
Clear Clear  
Wind Chill: 27°   Ceiling: Unl
Heat Index: 27°   Visibility: 10mi
Dew Point:   Wind: 0mph
Humidity: 47%   Direction: NA
Pressure: 30.5"   Gusts: NA
Location:  39.9438°N, 77.6827°W
Report Text: KHGR 212353Z 00000KT 10SM CLR M03/M13 A3050 RMK AO2 SLP350 T10281128 10017 21033 51016
Loading
Personal Weather Stations






























Interactive Weather Map New forecast layout! Learn more

10-Day Weather Forecast

Advertisements
Track Severe Weather on mobile